Time;durP1;ratioP1;P1;durP2;ratioP2;P2;SDS_P1;SDS_P2;PMS_P1;PMS_P2;Temp;Humidity;BMP_temperature;BMP_pressure;BME280_temperature;BME280_humidity;BME280_pressure;Samples;Min_cycle;Max_cycle;Signal;HPM_P1;HPM_P2
2022/10/14 10:50:22;;;;;;;27.05;23.88;;;20.60;99.90;;;;;;6222928;22;20074;-91
2022/10/14 10:53:21;;;;;;;31.10;25.55;;;20.60;99.90;;;;;;6217191;23;20019;-92
2022/10/14 10:55:53;;;;;;;33.53;25.63;;;20.80;99.90;;;;;;6117776;23;20129;-92
2022/10/14 10:58:34;;;;;;;32.15;23.63;;;20.80;99.90;;;;;;6196376;23;20016;-92
2022/10/14 11:01:15;;;;;;;29.83;24.45;;;20.80;99.90;;;;;;6196297;23;20341;-93
2022/10/14 11:04:00;;;;;;;33.25;26.98;;;20.80;99.90;;;;;;6196222;23;20087;-91
2022/10/14 11:12:40;;;;;;;29.88;24.40;;;21.00;99.90;;;;;;6221725;23;20424;-93
2022/10/14 11:15:27;;;;;;;33.90;24.30;;;21.10;99.90;;;;;;6196659;23;20016;-92
2022/10/14 11:18:08;;;;;;;34.95;26.60;;;21.00;99.90;;;;;;6196571;23;20004;-93
2022/10/14 11:21:09;;;;;;;41.47;27.73;;;20.90;99.90;;;;;;6196191;23;20004;-92
2022/10/14 11:23:39;;;;;;;38.30;25.52;;;20.60;99.90;;;;;;6197096;23;20012;-93
2022/10/14 11:26:21;;;;;;;41.30;28.40;;;20.60;99.90;;;;;;6196161;23;20011;-95
2022/10/14 11:29:12;;;;;;;41.95;28.02;;;20.50;99.90;;;;;;6196239;23;20489;-94
2022/10/14 11:31:50;;;;;;;40.63;26.88;;;20.40;99.90;;;;;;6196541;23;20019;-94
2022/10/14 11:34:42;;;;;;;45.88;28.83;;;20.30;99.90;;;;;;6221933;23;20036;-94
2022/10/14 11:37:34;;;;;;;48.15;30.50;;;20.00;99.90;;;;;;6196090;23;20425;-93
2022/10/14 11:53:59;;;;;;;44.90;30.05;;;19.40;99.90;;;;;;6247485;22;20050;31
2022/10/14 12:24:15;;;;;;;40.83;28.17;;;19.80;99.90;;;;;;6236215;22;20034;-92
2022/10/14 12:27:06;;;;;;;34.50;25.50;;;19.90;99.90;;;;;;6244492;23;20040;-93
2022/10/14 12:29:51;;;;;;;50.67;29.95;;;19.90;99.90;;;;;;6249294;22;20047;-93
2022/10/14 12:32:52;;;;;;;38.47;27.23;;;20.00;99.90;;;;;;6201860;23;20012;-92
2022/10/14 12:39:20;;;;;;;41.72;28.30;;;20.10;99.90;;;;;;6041606;23;20402;-94
2022/10/14 12:41:58;;;;;;;38.85;28.23;;;20.00;99.90;;;;;;6010912;23;20015;-93
2022/10/14 12:44:55;;;;;;;36.95;28.85;;;19.90;99.90;;;;;;6011055;23;20083;-92
2022/10/14 12:50:27;;;;;;;35.40;27.10;;;19.70;99.90;;;;;;6247817;22;20062;-91
2022/10/14 12:53:03;;;;;;;41.63;29.20;;;19.60;99.90;;;;;;6196746;23;20015;-92
2022/10/14 12:55:47;;;;;;;44.03;31.02;;;19.70;99.90;;;;;;6194708;23;20429;-92
2022/10/14 12:58:41;;;;;;;44.25;29.05;;;19.70;99.90;;;;;;6195554;23;20012;-92
2022/10/14 13:01:24;;;;;;;46.80;30.85;;;19.60;99.90;;;;;;6196142;23;20416;-92
2022/10/14 13:04:17;;;;;;;50.87;33.83;;;19.50;99.90;;;;;;6195538;23;20032;-93
2022/10/14 13:07:04;;;;;;;47.45;31.67;;;19.50;99.90;;;;;;6194559;23;20038;-92
2022/10/14 13:09:33;;;;;;;55.00;33.85;;;19.50;99.90;;;;;;6194030;22;20012;-92
2022/10/14 13:12:00;;;;;;;52.83;32.53;;;19.40;99.90;;;;;;6194589;23;20133;-92
2022/10/14 13:14:28;;;;;;;55.10;34.13;;;19.40;99.90;;;;;;6194018;23;20016;-92
2022/10/14 13:17:00;;;;;;;51.58;33.30;;;19.30;99.90;;;;;;6193980;23;20008;-92
2022/10/14 13:19:32;;;;;;;64.57;36.50;;;19.30;99.90;;;;;;6193719;22;20027;-92
2022/10/14 13:22:04;;;;;;;57.63;35.15;;;19.30;99.90;;;;;;6220587;23;20016;-92
2022/10/14 13:24:40;;;;;;;57.28;34.67;;;19.20;99.90;;;;;;6197200;23;20349;-93
2022/10/14 13:27:21;;;;;;;62.38;36.10;;;19.10;99.90;;;;;;6195282;23;20062;-94
2022/10/14 13:30:00;;;;;;;58.03;35.75;;;19.00;99.90;;;;;;6219273;22;20012;-92
2022/10/14 13:32:43;;;;;;;62.45;35.72;;;19.10;99.90;;;;;;6219136;23;20445;-92
2022/10/14 13:35:40;;;;;;;58.47;34.47;;;19.00;99.90;;;;;;6194667;23;20004;-93
2022/10/14 13:38:14;;;;;;;45.85;29.55;;;18.90;99.90;;;;;;6195318;23;20460;-93
2022/10/14 13:40:55;;;;;;;48.85;29.35;;;18.90;99.90;;;;;;6195247;23;20016;-93
2022/10/14 13:43:41;;;;;;;39.85;25.80;;;18.90;99.90;;;;;;6195255;23;20004;-92
2022/10/14 13:46:21;;;;;;;40.38;25.05;;;18.90;99.90;;;;;;6196056;23;20019;-93
2022/10/14 13:48:54;;;;;;;37.90;23.35;;;19.00;99.90;;;;;;6129460;23;1605018;-92
2022/10/14 13:51:46;;;;;;;31.45;20.63;;;18.90;99.90;;;;;;6197258;23;20000;-92
2022/10/14 13:54:23;;;;;;;23.23;16.40;;;18.90;99.90;;;;;;6178149;23;20156;-93
2022/10/14 13:57:13;;;;;;;24.70;16.75;;;18.90;99.90;;;;;;6197260;23;20008;-93
2022/10/14 13:59:45;;;;;;;23.10;15.25;;;18.90;99.90;;;;;;6196800;22;20043;-93
2022/10/14 14:02:30;;;;;;;25.52;15.32;;;18.90;99.90;;;;;;6198173;23;20004;-92
2022/10/14 14:04:58;;;;;;;20.30;14.38;;;18.90;99.90;;;;;;6200980;23;20016;-93
2022/10/14 14:07:33;;;;;;;21.50;13.05;;;19.00;99.90;;;;;;6202415;23;20058;-94
2022/10/14 14:10:07;;;;;;;17.23;12.90;;;18.90;99.90;;;;;;6204912;23;20000;-93
2022/10/14 14:12:33;;;;;;;15.65;11.60;;;18.90;99.90;;;;;;6196868;23;20020;-91
2022/10/14 14:15:00;;;;;;;15.85;11.93;;;18.90;99.90;;;;;;6196837;23;20491;-92
2022/10/14 14:17:30;;;;;;;15.88;13.18;;;18.90;99.90;;;;;;6196804;23;20318;-92
2022/10/14 14:19:57;;;;;;;16.00;13.13;;;18.90;99.90;;;;;;6196754;23;20020;-92
2022/10/14 14:22:30;;;;;;;18.50;14.18;;;18.90;99.90;;;;;;6196745;23;20004;-92
2022/10/14 14:25:18;;;;;;;23.98;16.30;;;18.90;99.90;;;;;;6197406;23;20012;-91
2022/10/14 14:27:54;;;;;;;26.73;16.40;;;18.90;99.90;;;;;;6221789;23;20307;-93
2022/10/14 14:30:35;;;;;;;20.98;15.82;;;18.90;99.90;;;;;;6197031;23;20008;-91
2022/10/14 14:33:10;;;;;;;20.40;15.30;;;18.90;99.90;;;;;;6196907;23;20468;-92
2022/10/14 14:35:36;;;;;;;;;;;19.00;99.90;;;;;;6197281;23;20008;-92
2022/10/14 14:38:02;;;;;;;19.70;15.02;;;18.90;99.90;;;;;;6196318;23;20363;-91
2022/10/14 14:40:30;;;;;;;17.17;13.55;;;18.90;99.90;;;;;;6196647;23;20346;-91
2022/10/14 14:43:04;;;;;;;18.75;13.35;;;19.00;99.90;;;;;;6196429;23;20004;-91
2022/10/14 14:45:32;;;;;;;;;;;19.10;99.90;;;;;;6196899;23;20012;-92
2022/10/14 14:48:05;;;;;;;17.05;12.57;;;19.20;99.90;;;;;;6195919;23;19908;-92
2022/10/14 14:50:38;;;;;;;15.45;11.75;;;19.10;99.90;;;;;;6196448;23;20093;-91
2022/10/14 14:53:28;;;;;;;19.52;11.48;;;19.10;99.90;;;;;;6196797;23;20430;-92
2022/10/14 14:56:14;;;;;;;12.98;11.32;;;19.00;99.90;;;;;;6196668;23;20000;-94
2022/10/14 14:58:49;;;;;;;13.30;10.07;;;19.00;99.90;;;;;;6196554;23;20008;-93
2022/10/14 15:01:26;;;;;;;12.82;9.57;;;18.90;99.90;;;;;;6196626;23;20015;-91
2022/10/14 15:04:21;;;;;;;11.75;8.18;;;18.80;99.90;;;;;;6221874;23;20479;-92
2022/10/14 15:07:26;;;;;;;8.80;7.72;;;18.80;99.90;;;;;;6107952;23;20001;-94
2022/10/14 15:09:54;;;;;;;;;;;18.80;99.90;;;;;;6109917;23;20096;-93
2022/10/14 15:12:24;;;;;;;9.23;7.45;;;18.80;99.90;;;;;;6105914;23;19900;-92
2022/10/14 15:14:58;;;;;;;7.43;6.78;;;18.80;99.90;;;;;;6128346;23;20041;-93
2022/10/14 15:18:03;;;;;;;7.03;6.32;;;18.90;99.90;;;;;;6102600;23;20006;-92
2022/10/14 15:21:05;;;;;;;8.73;7.70;;;18.90;99.90;;;;;;6107930;23;20487;-93
2022/10/14 15:27:05;;;;;;;;;;;;;;;;;;;;;
2022/10/14 15:34:40;;;;;;;;;;;;;;;;;;;;;
2022/10/14 16:04:56;;;;;;;8.10;6.38;;;18.30;99.90;;;;;;6256913;22;20028;-92
2022/10/14 16:09:57;;;;;;;12.73;6.88;;;18.20;99.90;;;;;;6247797;22;20047;-93
2022/10/14 16:12:24;;;;;;;9.02;6.82;;;18.20;99.90;;;;;;6195920;23;20023;-93
2022/10/14 16:14:51;;;;;;;14.95;6.80;;;18.20;99.90;;;;;;6196101;23;20012;-92
2022/10/14 16:17:17;;;;;;;12.68;6.95;;;18.20;99.90;;;;;;6197485;23;20401;-92
2022/10/14 16:19:45;;;;;;;8.07;6.10;;;18.10;99.90;;;;;;6197141;23;20453;-93
2022/10/14 16:22:15;;;;;;;14.27;6.95;;;18.10;99.90;;;;;;6189652;23;20039;-93
2022/10/14 16:24:45;;;;;;;9.57;6.18;;;18.00;99.90;;;;;;6202913;23;20008;-93
2022/10/14 16:27:11;;;;;;;9.20;5.88;;;18.00;99.90;;;;;;6196098;23;20004;-93
2022/10/14 16:29:43;;;;;;;10.57;6.13;;;18.00;99.90;;;;;;6196994;23;20015;-93
2022/10/14 16:32:11;;;;;;;12.27;6.40;;;17.90;99.90;;;;;;6198388;23;20005;-93
2022/10/14 16:34:37;;;;;;;11.23;5.95;;;17.90;99.90;;;;;;6196192;23;20004;-92
2022/10/14 16:37:05;;;;;;;7.30;6.32;;;17.80;99.90;;;;;;6199602;23;20028;-93
2022/10/14 16:39:35;;;;;;;13.10;6.45;;;17.70;99.90;;;;;;6195581;23;20016;-92
2022/10/14 16:42:05;;;;;;;13.68;6.80;;;17.70;99.90;;;;;;6198501;23;20018;-93
2022/10/14 16:44:32;;;;;;;8.73;6.50;;;17.60;99.90;;;;;;6196100;23;20087;-92
2022/10/14 16:47:18;;;;;;;7.63;6.40;;;17.60;99.90;;;;;;6197813;23;20004;-93
2022/10/14 16:49:48;;;;;;;8.18;6.40;;;17.60;99.90;;;;;;6198586;23;20011;-93
2022/10/14 16:52:15;;;;;;;9.50;5.88;;;17.50;99.90;;;;;;6197390;23;20012;-93
2022/10/14 16:54:42;;;;;;;7.47;5.55;;;17.50;99.90;;;;;;6196684;23;20019;-90
2022/10/14 16:57:41;;;;;;;8.40;5.00;;;17.50;99.90;;;;;;6217900;22;19985;-96
2022/10/14 17:58:41;;;;;;;13.57;5.78;;;17.10;99.90;;;;;;6252641;22;19931;-93
2022/10/14 18:08:18;;;;;;;11.93;7.35;;;17.00;99.90;;;;;;6182960;23;20087;-91
2022/10/14 18:10:45;;;;;;;11.57;7.25;;;17.00;99.90;;;;;;6191523;23;20035;-93
2022/10/14 18:13:11;;;;;;;14.73;7.80;;;17.00;99.90;;;;;;6166951;23;20080;-93
2022/10/14 18:15:37;;;;;;;14.00;7.82;;;16.90;99.90;;;;;;6191775;23;20015;-92
2022/10/14 18:18:03;;;;;;;8.82;7.03;;;16.90;99.90;;;;;;6166683;23;20011;-91
2022/10/14 18:20:31;;;;;;;12.70;7.43;;;16.90;99.90;;;;;;6162094;23;20338;-92
2022/10/14 18:23:01;;;;;;;12.88;7.30;;;16.90;99.90;;;;;;6167135;23;20007;-92
2022/10/14 18:25:28;;;;;;;13.57;8.02;;;16.90;99.90;;;;;;6167622;23;20008;-92
2022/10/14 18:27:54;;;;;;;11.60;7.90;;;16.90;99.90;;;;;;6167176;23;20054;-93
2022/10/14 18:30:29;;;;;;;16.75;8.52;;;16.90;99.90;;;;;;6195420;23;20012;-92
2022/10/14 18:32:55;;;;;;;14.98;7.63;;;16.90;99.90;;;;;;6175265;23;20325;-92
2022/10/14 18:35:22;;;;;;;13.60;8.63;;;16.90;99.90;;;;;;6194793;23;20012;-93
2022/10/14 18:37:49;;;;;;;21.48;8.10;;;16.90;99.90;;;;;;6168354;23;20011;-92
2022/10/14 18:40:17;;;;;;;14.90;7.88;;;16.90;99.90;;;;;;6191624;23;20020;-93
2022/10/14 18:42:46;;;;;;;12.38;8.27;;;16.90;99.90;;;;;;6174423;23;20017;-93
2022/10/14 18:45:13;;;;;;;15.48;8.32;;;16.90;99.90;;;;;;6177955;23;20012;-92
2022/10/14 18:47:39;;;;;;;12.00;8.75;;;16.90;99.90;;;;;;6170563;23;20027;-91
2022/10/14 18:50:11;;;;;;;15.38;9.82;;;16.90;99.90;;;;;;6192582;23;20389;-93
2022/10/14 18:52:37;;;;;;;20.13;10.90;;;16.80;99.90;;;;;;6168512;23;20427;-92
2022/10/14 18:55:04;;;;;;;20.27;9.27;;;16.80;99.90;;;;;;6171133;23;20457;-93
2022/10/14 18:57:31;;;;;;;17.38;9.38;;;16.80;99.90;;;;;;6173403;23;20004;-93
2022/10/14 19:00:02;;;;;;;18.67;9.10;;;16.80;99.90;;;;;;6157964;23;20409;-93
2022/10/14 19:02:30;;;;;;;12.80;7.85;;;16.80;99.90;;;;;;6139822;23;20002;-93
2022/10/14 19:24:13;;;;;;;16.65;7.72;;;16.70;99.90;;;;;;6236362;22;20024;-92
2022/10/14 19:26:42;;;;;;;17.33;8.13;;;16.70;99.90;;;;;;6232603;23;20022;-93
2022/10/14 19:29:12;;;;;;;16.13;8.27;;;16.70;99.90;;;;;;6182257;22;20024;-84
2022/10/14 19:31:42;;;;;;;16.60;8.32;;;16.70;99.90;;;;;;6214458;23;20084;-79
2022/10/14 19:34:13;;;;;;;14.73;8.13;;;16.70;99.90;;;;;;6189273;23;20108;-89
2022/10/14 19:36:42;;;;;;;13.68;7.40;;;16.70;99.90;;;;;;6189324;23;20008;-87
2022/10/14 19:39:14;;;;;;;13.55;7.45;;;16.70;99.90;;;;;;6192527;23;20009;-89
2022/10/14 19:41:45;;;;;;;15.63;8.18;;;16.70;99.90;;;;;;6164557;23;20321;-86
2022/10/14 19:44:13;;;;;;;12.48;7.25;;;16.70;99.90;;;;;;6190149;23;20009;-88
2022/10/14 19:46:40;;;;;;;11.85;7.53;;;16.70;99.90;;;;;;6191525;23;20028;-87
2022/10/14 19:49:09;;;;;;;17.80;7.82;;;16.70;99.90;;;;;;6191384;23;20079;-89
2022/10/14 19:51:37;;;;;;;13.52;8.35;;;16.70;99.90;;;;;;6164252;23;20029;-89
2022/10/14 19:54:06;;;;;;;15.93;7.72;;;16.70;99.90;;;;;;6112284;23;20036;-89
2022/10/14 19:56:33;;;;;;;18.90;7.53;;;16.70;99.90;;;;;;6135851;23;20031;-89
2022/10/14 19:59:00;;;;;;;15.73;7.43;;;16.70;99.90;;;;;;6133593;23;20037;-88
2022/10/14 20:02:04;;;;;;;14.57;7.22;;;16.70;99.90;;;;;;6134487;23;20033;-89
2022/10/14 20:04:35;;;;;;;12.02;7.72;;;16.70;99.90;;;;;;6167465;23;20489;-90
2022/10/14 20:07:08;;;;;;;;;;;16.70;99.90;;;;;;6112302;23;20021;-87
2022/10/14 20:09:34;;;;;;;12.73;7.38;;;16.60;99.90;;;;;;6130404;23;19904;-81
2022/10/14 20:12:01;;;;;;;14.60;7.40;;;16.60;99.90;;;;;;6154929;23;20148;-81
2022/10/14 20:14:29;;;;;;;14.80;8.13;;;16.60;99.90;;;;;;6106349;23;20036;-91
2022/10/14 20:21:28;;;;;;;14.80;9.02;;;16.50;99.90;;;;;;6103152;23;20024;-92
2022/10/14 20:24:00;;;;;;;16.67;8.80;;;16.50;99.90;;;;;;6190208;23;20066;-92
2022/10/14 20:26:28;;;;;;;15.90;8.40;;;16.50;99.90;;;;;;6191354;23;20072;-92
2022/10/14 20:29:04;;;;;;;13.90;8.88;;;16.50;99.90;;;;;;6194726;23;20477;-93
2022/10/14 20:31:37;;;;;;;16.10;8.30;;;16.50;99.90;;;;;;6203976;23;20015;-93
2022/10/14 20:34:04;;;;;;;20.42;8.98;;;16.50;99.90;;;;;;6197646;23;20008;-92
2022/10/14 20:36:34;;;;;;;18.70;8.48;;;16.40;99.90;;;;;;6192818;23;20007;-93
2022/10/14 20:39:05;;;;;;;15.82;8.23;;;16.40;99.90;;;;;;6194618;23;20021;-93
2022/10/14 20:41:34;;;;;;;14.40;8.30;;;16.40;99.90;;;;;;6168414;23;20008;-92
2022/10/14 20:44:17;;;;;;;12.32;8.70;;;16.40;99.90;;;;;;6199249;23;20015;-93
2022/10/14 20:46:53;;;;;;;17.55;9.05;;;16.50;99.90;;;;;;6191613;23;20005;-94
2022/10/14 20:49:20;;;;;;;15.90;8.75;;;16.50;99.90;;;;;;6192673;23;20012;-92
2022/10/14 20:54:37;;;;;;;16.23;8.20;;;16.50;99.90;;;;;;6253309;23;20028;-94
2022/10/14 20:57:04;;;;;;;13.52;7.38;;;16.60;99.90;;;;;;6239499;23;20306;-92
2022/10/14 21:00:03;;;;;;;;;;;;;;;;;;;;;
2022/10/14 21:02:34;;;;;;;15.07;7.15;;;16.60;99.90;;;;;;6200381;23;20005;-92
2022/10/14 21:05:03;;;;;;;15.20;6.88;;;16.60;99.90;;;;;;6170891;23;20015;-92
2022/10/14 21:07:46;;;;;;;;;;;;;;;;;;;;;
2022/10/14 21:13:29;;;;;;;12.73;7.68;;;16.70;99.90;;;;;;6278457;22;20081;-92
2022/10/14 21:15:56;;;;;;;15.55;7.40;;;16.70;99.90;;;;;;6227227;22;20007;-92
2022/10/14 21:18:23;;;;;;;11.50;7.70;;;16.60;99.90;;;;;;6228928;22;20008;-92
2022/10/14 21:20:51;;;;;;;10.98;6.82;;;16.60;99.90;;;;;;6221384;23;20012;-91
2022/10/14 21:23:18;;;;;;;15.77;7.72;;;16.60;99.90;;;;;;6245799;23;20000;-91
2022/10/14 21:40:03;;;;;;;;;;;16.50;99.90;;;;;;6169407;23;20037;-93
2022/10/14 21:43:46;;;;;;;;;;;;;;;;;;;;;
2022/10/14 21:50:30;;;;;;;11.55;7.03;;;16.40;99.90;;;;;;5743352;25;20510;-92
2022/10/14 21:53:00;;;;;;;12.80;7.82;;;16.40;99.90;;;;;;5778345;24;20079;-93
2022/10/14 21:55:27;;;;;;;11.32;8.25;;;16.40;99.90;;;;;;5796942;24;20015;-91
2022/10/14 21:58:00;;;;;;;17.40;7.60;;;16.30;99.90;;;;;;5799508;24;20439;-93
2022/10/14 22:00:37;;;;;;;20.45;7.82;;;16.40;99.90;;;;;;5805017;24;20106;-92
2022/10/14 22:03:33;;;;;;;16.25;7.40;;;16.30;99.90;;;;;;5807886;24;20022;-93
2022/10/14 22:06:12;;;;;;;15.33;8.47;;;16.30;99.90;;;;;;5850137;24;20011;-93
2022/10/14 22:12:44;;;;;;;12.82;8.27;;;16.20;99.90;;;;;;5913213;24;20048;-91
2022/10/14 22:15:33;;;;;;;11.52;7.65;;;16.10;99.90;;;;;;5924060;24;20075;-94
2022/10/14 22:18:08;;;;;;;12.35;7.78;;;16.10;99.90;;;;;;5993614;23;20362;-93
2022/10/14 22:20:36;;;;;;;11.10;7.95;;;16.00;99.90;;;;;;6013987;23;20028;-93
2022/10/14 22:23:39;;;;;;;13.25;8.05;;;16.00;99.90;;;;;;6074718;23;20312;-93
2022/10/14 22:26:10;;;;;;;15.15;7.97;;;16.00;99.90;;;;;;6079423;23;20074;-94
2022/10/14 22:28:37;;;;;;;17.08;8.73;;;16.00;99.90;;;;;;6079624;23;20034;-92
2022/10/14 22:31:07;;;;;;;16.67;9.18;;;16.00;99.90;;;;;;6080367;23;20428;-93
2022/10/14 22:33:38;;;;;;;12.48;8.63;;;15.90;99.90;;;;;;6080999;23;20033;-94
2022/10/14 22:36:22;;;;;;;16.30;8.95;;;15.90;99.90;;;;;;6084967;23;20018;-93
2022/10/14 22:38:50;;;;;;;;;;;15.90;99.90;;;;;;6129301;23;20057;-93
2022/10/14 22:41:21;;;;;;;16.50;9.20;;;15.90;99.90;;;;;;6095401;23;19901;-92
2022/10/14 22:43:54;;;;;;;16.40;9.05;;;15.90;99.90;;;;;;6157019;23;20009;-93
2022/10/14 22:46:50;;;;;;;21.48;9.25;;;15.80;99.90;;;;;;6112329;23;20005;-92
2022/10/14 22:49:17;;;;;;;17.30;9.30;;;15.80;99.90;;;;;;6135147;23;20037;-93
2022/10/14 22:51:47;;;;;;;11.32;8.63;;;15.80;99.90;;;;;;6109537;23;20452;-94
2022/10/14 22:54:23;;;;;;;15.13;9.00;;;15.70;99.90;;;;;;6111993;23;20010;-93
2022/10/14 22:56:50;;;;;;;14.60;8.82;;;15.70;99.90;;;;;;6110489;23;20008;-93
2022/10/14 22:59:19;;;;;;;17.80;10.18;;;15.70;99.90;;;;;;6117869;23;20072;-93
2022/10/14 23:01:49;;;;;;;14.13;9.20;;;15.60;99.90;;;;;;6145983;23;20063;-92
2022/10/14 23:04:16;;;;;;;15.75;9.75;;;15.60;99.90;;;;;;6124651;23;20053;-92
2022/10/14 23:06:48;;;;;;;13.05;9.68;;;15.60;99.90;;;;;;6124232;23;20001;-93
2022/10/14 23:09:16;;;;;;;10.35;8.60;;;15.60;99.90;;;;;;6124512;23;20040;-92
2022/10/14 23:11:43;;;;;;;16.27;8.32;;;15.60;99.90;;;;;;6123209;23;20088;-92
2022/10/14 23:14:09;;;;;;;18.05;8.93;;;15.70;99.90;;;;;;6115937;23;20006;-93
2022/10/14 23:16:38;;;;;;;16.90;8.93;;;15.70;99.90;;;;;;6110981;23;20015;-93
2022/10/14 23:19:05;;;;;;;14.90;9.05;;;15.70;99.90;;;;;;6150677;23;20021;-93
2022/10/14 23:21:35;;;;;;;10.95;7.82;;;15.70;99.90;;;;;;6167954;23;20065;-93
2022/10/14 23:24:06;;;;;;;12.32;8.25;;;15.70;99.90;;;;;;6167645;23;20442;-92
2022/10/14 23:26:35;;;;;;;14.68;7.75;;;15.70;99.90;;;;;;6191998;23;20012;-93
2022/10/14 23:29:05;;;;;;;13.23;7.72;;;15.70;99.90;;;;;;6193044;23;20008;-92
2022/10/14 23:31:36;;;;;;;13.23;7.82;;;15.70;99.90;;;;;;6192110;23;20013;-93
2022/10/14 23:34:20;;;;;;;12.95;7.57;;;15.70;99.90;;;;;;6192457;23;20005;-92
2022/10/14 23:36:47;;;;;;;;;;;15.80;99.90;;;;;;6164218;23;20100;-93
2022/10/14 23:39:35;;;;;;;12.10;7.15;;;15.70;99.90;;;;;;6169265;23;19912;-93
2022/10/14 23:42:04;;;;;;;10.63;7.35;;;15.70;99.90;;;;;;6206191;23;19989;-92
2022/10/14 23:44:40;;;;;;;10.93;6.68;;;15.70;99.90;;;;;;6185763;23;20021;-93
